Latest Coastal Weather Observations for Mandurah

IDW60701

Issued at 9:53 am WST Saturday 25 March 2017 (issued every 10 minutes, with the page automatically refreshed every 10 minutes)

About coastal observations | Map of coastal stations | Coastal observations for WA | Marine services | Other Formats
Station Details ID: 009977 Name: MANDURAH Lat: -32.52 Lon: 115.71 Height: 3.0 m
Data from the previous 72 hours. | See also: Recent months at Mandurah
Date/Time
WST
Temp
°C
Wind Pressure Rain since
9am
mm
Weather Cloud Vis
km
Sea
Height
m
Swell
Dir  Spd
kts
Gust
kts
hPa Trend Height
m
Period
s
Dir
25/09:30am 21.3 E 3 5 1012.5 - 0.0 - - - - - - -
25/09:00am 20.2 E 4 6 1012.8 - 0.0 - - - - - - -
25/08:30am 18.8 ESE 3 5 1012.7 - 0.0 - - - - - - -
25/08:00am 17.8 SE 4 5 1012.7 - 0.0 - - - - - - -
25/07:30am 17.2 SE 3 5 1013.0 - 0.0 - - - - - - -
25/07:00am 16.5 SSE 4 5 1013.0 - 0.0 - - - - - - -
25/06:30am 16.3 SE 2 3 1012.9 - 0.0 - - - - - - -
25/06:00am 16.1 ESE 1 3 1013.0 - 0.0 - - - - - - -
25/05:30am 16.0 E 2 5 1013.0 - 0.0 - - - - - - -
25/05:00am 16.2 ESE 1 2 1012.9 - 0.0 - - - - - - -
25/04:30am 16.6 ESE 3 5 1012.9 - 0.0 - - - - - - -
25/04:00am 16.9 ESE 3 6 1012.6 - 0.0 - - - - - - -
25/03:30am 17.2 SE 4 6 1012.6 - 0.0 - - - - - - -
25/03:00am 17.4 SE 4 5 1012.8 - 0.0 - - - - - - -
25/02:30am 17.7 ESE 5 8 1012.9 - 0.0 - - - - - - -
25/02:00am 18.1 SE 5 7 1012.9 - 0.0 - - - - - - -
25/01:30am 18.4 SE 6 9 1012.9 - 0.0 - - - - - - -
25/01:00am 18.6 SE 6 10 1013.1 - 0.0 - - - - - - -
25/12:30am 19.1 SE 8 11 1013.2 - 0.0 - - - - - - -
25/12:00am 19.3 SSE 6 11 1013.4 - 0.0 - - - - - - -
 
Date/Time
WST
Temp
°C
Wind Pressure Rain since
9am
mm
Weather Cloud Vis
km
Sea
Height
m
Swell
Dir  Spd
kts
Gust
kts
hPa Trend Height
m
Period
s
Dir
24/11:30pm 19.2 SSE 6 8 1013.7 - 0.0 - - - - - - -
24/11:00pm 19.7 SSE 5 7 1013.7 - 0.0 - - - - - - -
24/10:30pm 20.0 S 5 7 1013.7 - 0.0 - - - - - - -
24/10:00pm 20.3 S 3 5 1014.0 - 0.0 - - - - - - -
24/09:30pm 20.7 SSE 3 3 1014.0 - 0.0 - - - - - - -
24/09:00pm 21.0 S 4 6 1014.2 - 0.0 - - - - - - -
24/08:30pm 21.1 S 5 7 1014.1 - 0.0 - - - - - - -
24/08:00pm 21.4 S 4 6 1014.0 - 0.0 - - - - - - -
24/07:30pm 21.6 S 5 8 1013.9 - 0.0 - - - - - - -
24/07:00pm 21.7 SSW 5 8 1013.7 - 0.0 - - - - - - -
24/06:30pm 21.9 SSW 7 13 1013.4 - 0.0 - - - - - - -
24/06:00pm 22.4 SSW 7 12 1013.2 - 0.0 - - - - - - -
24/05:30pm 22.7 SSW 9 14 1013.0 - 0.0 - - - - - - -
24/05:00pm 22.9 SW 10 15 1013.0 - 0.0 - - - - - - -
24/04:30pm 23.4 SSW 10 16 1013.0 - 0.0 - - - - - - -
24/04:00pm 23.8 SSW 9 16 1013.0 - 0.0 - - - - - - -
24/03:30pm 23.6 SSW 10 16 1013.1 - 0.0 - - - - - - -
24/03:00pm 24.3 S 9 15 1013.2 - 0.0 - - - - - - -
24/02:30pm 24.8 S 9 15 1013.2 - 0.0 - - - - - - -
24/02:00pm 24.4 S 10 14 1013.6 - 0.0 - - - - - - -
24/01:30pm 24.2 SSE 9 14 1014.1 - 0.0 - - - - - - -
24/01:00pm 24.1 S 9 14 1014.6 - 0.0 - - - - - - -
24/12:30pm 23.8 S 7 11 1015.0 - 0.0 - - - - - - -
24/12:00pm 23.0 SSE 6 10 1015.6 - 0.0 - - - - - - -
24/11:30am 21.9 SSE 7 11 1015.9 - 0.0 - - - - - - -
24/11:00am 21.3 S 6 9 1016.4 - 0.0 - - - - - - -
24/10:30am 20.6 SSE 6 8 1016.9 - 0.0 - - - - - - -
24/10:00am 19.9 SSE 5 7 1017.1 - 0.0 - - - - - - -
24/09:30am 18.7 S 2 4 1017.2 - 0.0 - - - - - - -
24/09:00am 17.9 SE 3 5 1017.1 - 0.0 - - - - - - -
24/08:30am 17.7 SSE 5 7 1016.9 - 0.0 - - - - - - -
24/08:00am 16.9 SE 4 6 1016.5 - 0.0 - - - - - - -
24/07:30am 16.5 SE 4 6 1015.9 - 0.0 - - - - - - -
24/07:00am 16.7 SSE 5 9 1015.5 - 0.0 - - - - - - -
24/06:30am 16.6 SSE 6 8 1015.2 - 0.0 - - - - - - -
24/06:00am 16.7 S 5 8 1014.9 - 0.0 - - - - - - -
24/05:30am 16.5 S 4 5 1014.8 - 0.0 - - - - - - -
24/05:00am 16.4 S 3 5 1014.6 - 0.0 - - - - - - -
24/04:30am 16.4 SSE 6 8 1014.4 - 0.0 - - - - - - -
24/04:00am 16.8 SE 6 9 1014.2 - 0.0 - - - - - - -
24/03:30am 17.0 SSE 6 9 1014.3 - 0.0 - - - - - - -
24/03:00am 17.4 SSE 7 11 1014.5 - 0.0 - - - - - - -
24/02:30am 17.6 SSE 7 10 1014.5 - 0.0 - - - - - - -
24/02:00am 17.7 S 6 10 1014.4 - 0.0 - - - - - - -
24/01:30am 17.9 S 7 11 1014.5 - 0.0 - - - - - - -
24/01:00am 18.2 S 6 10 1014.5 - 0.0 - - - - - - -
24/12:30am 18.4 S 7 11 1014.6 - 0.0 - - - - - - -
24/12:00am 18.6 S 7 11 1014.5 - 0.0 - - - - - - -
 
Date/Time
WST
Temp
°C
Wind Pressure Rain since
9am
mm
Weather Cloud Vis
km
Sea
Height
m
Swell
Dir  Spd
kts
Gust
kts
hPa Trend Height
m
Period
s
Dir
23/11:30pm 18.8 S 8 12 1014.5 - 0.0 - - - - - - -
23/11:00pm 18.9 S 6 9 1014.5 - 0.0 - - - - - - -
23/10:30pm 19.2 S 8 14 1014.5 - 0.0 - - - - - - -
23/10:00pm 19.3 S 10 14 1014.6 - 0.0 - - - - - - -
23/09:30pm 19.4 S 7 12 1014.7 - 0.0 - - - - - - -
23/09:00pm 19.5 SSW 6 10 1014.8 - 0.0 - - - - - - -
23/08:30pm 19.4 SSW 7 13 1014.8 - 0.0 - - - - - - -
23/08:00pm 19.6 SSW 7 13 1014.6 - 0.0 - - - - - - -
23/07:30pm 19.7 SSW 7 13 1014.2 - 0.0 - - - - - - -
23/07:00pm 19.9 SSW 9 15 1013.9 - 0.0 - - - - - - -
23/06:30pm 20.0 SSW 10 16 1013.7 - 0.0 - - - - - - -
23/06:00pm 20.3 SSW 9 15 1013.5 - 0.0 - - - - - - -
23/05:30pm 20.9 SW 11 18 1013.3 - 0.0 - - - - - - -
23/05:00pm 21.3 SSW 11 18 1013.1 - 0.0 - - - - - - -
23/04:30pm 21.8 SSW 11 19 1012.9 - 0.0 - - - - - - -
23/04:00pm 21.6 SW 12 19 1012.8 - 0.0 - - - - - - -
23/03:30pm 21.9 SW 10 17 1012.6 - 0.0 - - - - - - -
23/03:00pm 21.4 SW 11 18 1012.5 - 0.0 - - - - - - -
23/02:30pm 22.1 SW 13 20 1012.5 - 0.0 - - - - - - -
23/02:00pm 22.4 SW 11 18 1012.6 - 0.0 - - - - - - -
23/01:30pm 21.9 SW 12 19 1012.7 - 0.0 - - - - - - -
23/01:00pm 22.2 SW 9 15 1012.8 - 0.0 - - - - - - -
23/12:30pm 21.0 S 9 14 1013.1 - 0.0 - - - - - - -
23/12:00pm 21.4 SW 9 15 1013.2 - 0.0 - - - - - - -
23/11:30am 21.6 SSW 10 15 1013.4 - 0.0 - - - - - - -
23/11:00am 21.4 SSW 9 15 1013.5 - 0.0 - - - - - - -
23/10:30am 21.1 SSW 9 13 1013.7 - 0.0 - - - - - - -
23/10:00am 20.7 S 9 13 1013.7 - 0.0 - - - - - - -
23/09:30am 19.7 S 4 6 1013.7 - 0.0 - - - - - - -
23/09:00am 19.3 SSE 3 5 1013.5 - 5.4 - - - - - - -
23/08:30am 18.6 SSE 4 6 1013.6 - 5.4 - - - - - - -
23/08:00am 17.8 SSE 3 4 1013.3 - 5.4 - - - - - - -
23/07:30am 17.6 SSE 3 5 1013.0 - 5.4 - - - - - - -
23/07:00am 17.5 S 3 6 1012.7 - 5.0 - - - - - - -
23/06:30am 17.8 S 2 4 1012.4 - 3.4 - - - - - - -
23/06:00am 17.9 S 1 3 1012.1 - 1.2 Rain - - - - - -
23/05:30am 17.6 S 1 2 1011.7 - 0.6 - - - - - - -
23/05:00am 17.6 CALM 0 0 1011.5 - 0.6 - - - - - - -
23/04:30am 18.1 SSW 2 3 1011.1 - 0.6 - - - - - - -
23/04:00am 18.1 S 1 3 1011.1 - 0.6 - - - - - - -
23/03:30am 18.3 SSW 3 6 1011.1 - 0.6 - - - - - - -
23/03:00am 18.5 SSW 4 7 1010.8 - 0.6 - - - - - - -
23/02:30am 18.8 S 8 12 1010.6 - 0.6 - - - - - - -
23/02:00am 18.9 S 6 10 1010.5 - 0.6 - - - - - - -
23/01:30am 19.3 SSW 7 11 1010.5 - 0.6 - - - - - - -
23/01:00am 19.4 SSW 5 9 1010.2 - 0.6 - - - - - - -
23/12:30am 19.5 SW 5 9 1010.2 - 0.6 - - - - - - -
23/12:00am 19.4 SW 3 4 1010.0 - 0.6 - - - - - - -
 
Date/Time
WST
Temp
°C
Wind Pressure Rain since
9am
mm
Weather Cloud Vis
km
Sea
Height
m
Swell
Dir  Spd
kts
Gust
kts
hPa Trend Height
m
Period
s
Dir
22/11:30pm 19.4 SW 4 5 1010.1 - 0.6 - - - - - - -
22/11:00pm 19.3 WSW 3 6 1010.0 - 0.6 - - - - - - -
22/10:30pm 19.3 WSW 3 5 1009.9 - 0.6 - - - - - - -
22/10:00pm 19.6 WSW 4 7 1009.9 - 0.6 - - - - - - -
22/09:30pm 19.6 WSW 5 7 1009.9 - 0.6 - - - - - - -
22/09:00pm 19.7 WSW 6 11 1009.7 - 0.6 - - - - - - -
22/08:30pm 19.9 WSW 6 11 1009.5 - 0.6 - - - - - - -
22/08:00pm 20.3 W 8 12 1008.9 - 0.6 - - - - - - -
22/07:30pm 19.9 W 7 11 1008.6 - 0.6 - - - - - - -
22/07:00pm 20.7 NW 13 20 1008.2 - 0.4 - - - - - - -
22/06:30pm 20.6 NW 15 19 1008.1 - 0.4 - - - - - - -
22/06:00pm 20.5 WNW 14 19 1007.9 - 0.4 - - - - - - -
22/05:30pm 20.7 WNW 13 17 1007.6 - 0.4 - - - - - - -
22/05:00pm 21.1 WNW 12 15 1007.5 - 0.4 - - - - - - -
22/04:30pm 20.4 WNW 13 16 1007.3 - 0.4 - - - - - - -
22/04:00pm 20.6 NW 15 18 1007.1 - 0.4 - - - - - - -
22/03:30pm 21.6 NW 16 19 1007.0 - 0.2 - - - - - - -
22/03:00pm 22.0 NW 14 17 1007.0 - 0.2 - - - - - - -
22/02:30pm 21.8 NW 14 16 1006.9 - 0.2 - - - - - - -
22/02:00pm 22.3 NW 13 16 1006.8 - 0.2 - - - - - - -
22/01:30pm 22.0 WNW 11 14 1006.8 - 0.2 - - - - - - -
22/01:00pm 21.2 NW 12 14 1006.8 - 0.2 - - - - - - -
22/12:30pm 20.6 WNW 11 15 1006.9 - 0.2 - - - - - - -
22/12:00pm 21.2 NW 10 12 1006.9 - 0.2 Recent precip. - - - - - -
22/11:30am 20.2 NW 10 12 1006.9 - 0.2 - - - - - - -
22/11:00am 20.5 NW 10 13 1007.0 - 0.0 - - - - - - -
22/10:30am 20.7 NW 11 13 1007.1 - 0.0 - - - - - - -
22/10:00am 20.5 NW 12 15 1006.9 - 0.0 - - - - - - -

Other Formats:

Comma delimited format used in spreadsheet applications
http://www.bom.gov.au/fwo/IDW60701/IDW60701.94605.axf

JavaScript Object Notation format (JSON) in row-major order
http://www.bom.gov.au/fwo/IDW60701/IDW60701.94605.json